sensor_id;sensor_type;location;lat;lon;timestamp;temperature;humidity
74488;DHT22;63019;51.080;13.642;2023-12-20T00:00:22;6.10;99.90
74488;DHT22;63019;51.080;13.642;2023-12-20T00:01:24;6.10;99.90
74488;DHT22;63019;51.080;13.642;2023-12-20T00:02:26;6.00;99.90
74488;DHT22;63019;51.080;13.642;2023-12-20T00:03:27;6.10;99.90
74488;DHT22;63019;51.080;13.642;2023-12-20T00:04:36;6.10;99.90
74488;DHT22;63019;51.080;13.642;2023-12-20T00:05:37;6.10;99.90
74488;DHT22;63019;51.080;13.642;2023-12-20T00:06:42;6.10;99.90
74488;DHT22;63019;51.080;13.642;2023-12-20T00:07:44;6.10;99.90
74488;DHT22;63019;51.080;13.642;2023-12-20T00:08:47;6.00;99.90
74488;DHT22;63019;51.080;13.642;2023-12-20T00:09:49;6.00;99.90
74488;DHT22;63019;51.080;13.642;2023-12-20T00:10:51;6.00;99.90
74488;DHT22;63019;51.080;13.642;2023-12-20T00:11:53;6.00;99.90
74488;DHT22;63019;51.080;13.642;2023-12-20T00:12:54;6.00;99.90
74488;DHT22;63019;51.080;13.642;2023-12-20T00:13:56;5.90;99.90
74488;DHT22;63019;51.080;13.642;2023-12-20T00:14:58;5.90;99.90
74488;DHT22;63019;51.080;13.642;2023-12-20T00:16:00;5.90;99.90
74488;DHT22;63019;51.080;13.642;2023-12-20T00:17:02;5.90;99.90
74488;DHT22;63019;51.080;13.642;2023-12-20T00:18:04;5.90;99.90
74488;DHT22;63019;51.080;13.642;2023-12-20T00:19:05;5.90;99.90
74488;DHT22;63019;51.080;13.642;2023-12-20T00:20:08;5.90;99.90
74488;DHT22;63019;51.080;13.642;2023-12-20T00:21:10;5.90;99.90
74488;DHT22;63019;51.080;13.642;2023-12-20T00:22:11;5.90;99.90
74488;DHT22;63019;51.080;13.642;2023-12-20T00:23:13;5.90;99.90
74488;DHT22;63019;51.080;13.642;2023-12-20T00:24:15;5.90;99.90
74488;DHT22;63019;51.080;13.642;2023-12-20T00:25:18;5.90;99.90
74488;DHT22;63019;51.080;13.642;2023-12-20T00:26:19;5.80;99.90
74488;DHT22;63019;51.080;13.642;2023-12-20T00:27:22;5.90;99.90
74488;DHT22;63019;51.080;13.642;2023-12-20T00:28:24;5.80;99.90
74488;DHT22;63019;51.080;13.642;2023-12-20T00:29:26;5.80;99.90
74488;DHT22;63019;51.080;13.642;2023-12-20T00:30:28;5.80;99.90
74488;DHT22;63019;51.080;13.642;2023-12-20T00:31:30;5.80;99.90
74488;DHT22;63019;51.080;13.642;2023-12-20T00:32:32;5.70;99.90
74488;DHT22;63019;51.080;13.642;2023-12-20T00:33:34;5.70;99.90
74488;DHT22;63019;51.080;13.642;2023-12-20T00:34:36;5.70;99.90
74488;DHT22;63019;51.080;13.642;2023-12-20T00:35:37;5.70;99.90
74488;DHT22;63019;51.080;13.642;2023-12-20T00:36:39;5.70;99.90
74488;DHT22;63019;51.080;13.642;2023-12-20T00:37:42;5.60;99.90
74488;DHT22;63019;51.080;13.642;2023-12-20T00:38:44;5.60;99.90
74488;DHT22;63019;51.080;13.642;2023-12-20T00:39:46;5.60;99.90
74488;DHT22;63019;51.080;13.642;2023-12-20T00:40:48;5.60;99.90
74488;DHT22;63019;51.080;13.642;2023-12-20T00:41:51;5.60;99.90
74488;DHT22;63019;51.080;13.642;2023-12-20T00:42:53;5.60;99.90
74488;DHT22;63019;51.080;13.642;2023-12-20T00:43:54;5.50;99.90
74488;DHT22;63019;51.080;13.642;2023-12-20T00:44:56;5.60;99.90
74488;DHT22;63019;51.080;13.642;2023-12-20T00:45:58;5.60;99.90
74488;DHT22;63019;51.080;13.642;2023-12-20T00:47:01;5.60;99.90
74488;DHT22;63019;51.080;13.642;2023-12-20T00:48:03;5.60;99.90
74488;DHT22;63019;51.080;13.642;2023-12-20T00:49:05;5.60;99.90
74488;DHT22;63019;51.080;13.642;2023-12-20T00:50:08;5.50;99.90
74488;DHT22;63019;51.080;13.642;2023-12-20T00:51:11;5.50;99.90
74488;DHT22;63019;51.080;13.642;2023-12-20T00:52:12;5.50;99.90
74488;DHT22;63019;51.080;13.642;2023-12-20T00:53:15;5.50;99.90
74488;DHT22;63019;51.080;13.642;2023-12-20T00:54:16;5.50;99.90
74488;DHT22;63019;51.080;13.642;2023-12-20T00:55:18;5.50;99.90
74488;DHT22;63019;51.080;13.642;2023-12-20T00:56:21;5.50;99.90
74488;DHT22;63019;51.080;13.642;2023-12-20T00:57:23;5.50;99.90
74488;DHT22;63019;51.080;13.642;2023-12-20T00:58:26;5.50;99.90
74488;DHT22;63019;51.080;13.642;2023-12-20T00:59:29;5.50;99.90
74488;DHT22;63019;51.080;13.642;2023-12-20T01:00:31;5.50;99.90
74488;DHT22;63019;51.080;13.642;2023-12-20T01:01:33;5.50;99.90
74488;DHT22;63019;51.080;13.642;2023-12-20T01:02:35;5.40;99.90
74488;DHT22;63019;51.080;13.642;2023-12-20T01:03:37;5.50;99.90
74488;DHT22;63019;51.080;13.642;2023-12-20T01:04:39;5.40;99.90
74488;DHT22;63019;51.080;13.642;2023-12-20T01:05:41;5.40;99.90
74488;DHT22;63019;51.080;13.642;2023-12-20T01:06:43;5.40;99.90
74488;DHT22;63019;51.080;13.642;2023-12-20T01:07:45;5.40;99.90
74488;DHT22;63019;51.080;13.642;2023-12-20T01:08:47;5.40;99.90
74488;DHT22;63019;51.080;13.642;2023-12-20T01:09:49;5.40;99.90
74488;DHT22;63019;51.080;13.642;2023-12-20T01:10:50;5.40;99.90
74488;DHT22;63019;51.080;13.642;2023-12-20T01:11:53;5.40;99.90
74488;DHT22;63019;51.080;13.642;2023-12-20T01:12:54;5.40;99.90
74488;DHT22;63019;51.080;13.642;2023-12-20T01:13:56;5.40;99.90
74488;DHT22;63019;51.080;13.642;2023-12-20T01:14:58;5.40;99.90
74488;DHT22;63019;51.080;13.642;2023-12-20T01:16:00;5.40;99.90
74488;DHT22;63019;51.080;13.642;2023-12-20T01:17:02;5.40;99.90
74488;DHT22;63019;51.080;13.642;2023-12-20T01:18:04;5.40;99.90
74488;DHT22;63019;51.080;13.642;2023-12-20T01:19:06;5.40;99.90
74488;DHT22;63019;51.080;13.642;2023-12-20T01:20:09;5.40;99.90
74488;DHT22;63019;51.080;13.642;2023-12-20T01:21:11;5.40;99.90
74488;DHT22;63019;51.080;13.642;2023-12-20T01:22:12;5.40;99.90
74488;DHT22;63019;51.080;13.642;2023-12-20T01:23:14;5.30;99.90
74488;DHT22;63019;51.080;13.642;2023-12-20T01:24:16;5.30;99.90
74488;DHT22;63019;51.080;13.642;2023-12-20T01:25:18;5.30;99.90
74488;DHT22;63019;51.080;13.642;2023-12-20T01:26:20;5.30;99.90
74488;DHT22;63019;51.080;13.642;2023-12-20T01:27:22;5.30;99.90
74488;DHT22;63019;51.080;13.642;2023-12-20T01:28:24;5.30;99.90
74488;DHT22;63019;51.080;13.642;2023-12-20T01:29:26;5.30;99.90
74488;DHT22;63019;51.080;13.642;2023-12-20T01:30:28;5.30;99.90
74488;DHT22;63019;51.080;13.642;2023-12-20T01:31:30;5.30;99.90
74488;DHT22;63019;51.080;13.642;2023-12-20T01:32:31;5.30;99.90
74488;DHT22;63019;51.080;13.642;2023-12-20T01:33:33;5.30;99.90
74488;DHT22;63019;51.080;13.642;2023-12-20T01:34:35;5.30;99.90
74488;DHT22;63019;51.080;13.642;2023-12-20T01:35:38;5.30;99.90
74488;DHT22;63019;51.080;13.642;2023-12-20T01:36:39;5.30;99.90
74488;DHT22;63019;51.080;13.642;2023-12-20T01:37:41;5.30;99.90
74488;DHT22;63019;51.080;13.642;2023-12-20T01:38:43;5.30;99.90
74488;DHT22;63019;51.080;13.642;2023-12-20T01:39:45;5.30;99.90
74488;DHT22;63019;51.080;13.642;2023-12-20T01:40:47;5.30;99.90
74488;DHT22;63019;51.080;13.642;2023-12-20T01:41:49;5.30;99.90
74488;DHT22;63019;51.080;13.642;2023-12-20T01:43:01;5.30;99.90
74488;DHT22;63019;51.080;13.642;2023-12-20T01:44:03;5.30;99.90
74488;DHT22;63019;51.080;13.642;2023-12-20T01:45:06;5.30;99.90
74488;DHT22;63019;51.080;13.642;2023-12-20T01:46:07;5.30;99.90
74488;DHT22;63019;51.080;13.642;2023-12-20T01:47:10;5.30;99.90
74488;DHT22;63019;51.080;13.642;2023-12-20T01:48:11;5.30;99.90
74488;DHT22;63019;51.080;13.642;2023-12-20T01:49:13;5.30;99.90
74488;DHT22;63019;51.080;13.642;2023-12-20T01:50:16;5.30;99.90
74488;DHT22;63019;51.080;13.642;2023-12-20T01:51:18;5.30;99.90
74488;DHT22;63019;51.080;13.642;2023-12-20T01:52:20;5.30;99.90
74488;DHT22;63019;51.080;13.642;2023-12-20T01:53:25;5.30;99.90
74488;DHT22;63019;51.080;13.642;2023-12-20T01:54:26;5.30;99.90
74488;DHT22;63019;51.080;13.642;2023-12-20T01:55:31;5.20;99.90
74488;DHT22;63019;51.080;13.642;2023-12-20T01:56:34;5.20;99.90
74488;DHT22;63019;51.080;13.642;2023-12-20T01:57:37;5.20;99.90
74488;DHT22;63019;51.080;13.642;2023-12-20T01:58:44;5.20;99.90
74488;DHT22;63019;51.080;13.642;2023-12-20T01:59:47;5.20;99.90
74488;DHT22;63019;51.080;13.642;2023-12-20T02:00:50;5.20;99.90
74488;DHT22;63019;51.080;13.642;2023-12-20T02:01:52;5.20;99.90
74488;DHT22;63019;51.080;13.642;2023-12-20T02:02:54;5.10;99.90
74488;DHT22;63019;51.080;13.642;2023-12-20T02:03:56;5.10;99.90
74488;DHT22;63019;51.080;13.642;2023-12-20T02:04:59;5.10;99.90
74488;DHT22;63019;51.080;13.642;2023-12-20T02:06:01;5.10;99.90
74488;DHT22;63019;51.080;13.642;2023-12-20T02:07:03;5.10;99.90
74488;DHT22;63019;51.080;13.642;2023-12-20T02:08:06;5.20;99.90
74488;DHT22;63019;51.080;13.642;2023-12-20T02:09:08;5.10;99.90
74488;DHT22;63019;51.080;13.642;2023-12-20T02:10:11;5.10;99.90
74488;DHT22;63019;51.080;13.642;2023-12-20T02:11:13;5.10;99.90
74488;DHT22;63019;51.080;13.642;2023-12-20T02:12:14;5.10;99.90
74488;DHT22;63019;51.080;13.642;2023-12-20T02:13:16;5.10;99.90
74488;DHT22;63019;51.080;13.642;2023-12-20T02:14:18;5.10;99.90
74488;DHT22;63019;51.080;13.642;2023-12-20T02:15:20;5.10;99.90
74488;DHT22;63019;51.080;13.642;2023-12-20T02:16:22;5.10;99.90
74488;DHT22;63019;51.080;13.642;2023-12-20T02:17:25;5.10;99.90
74488;DHT22;63019;51.080;13.642;2023-12-20T02:18:27;5.10;99.90
74488;DHT22;63019;51.080;13.642;2023-12-20T02:19:29;5.10;99.90
74488;DHT22;63019;51.080;13.642;2023-12-20T02:20:31;5.10;99.90
74488;DHT22;63019;51.080;13.642;2023-12-20T02:21:33;5.10;99.90
74488;DHT22;63019;51.080;13.642;2023-12-20T02:22:36;5.10;99.90
74488;DHT22;63019;51.080;13.642;2023-12-20T02:23:38;5.10;99.90
74488;DHT22;63019;51.080;13.642;2023-12-20T02:24:40;5.10;99.90
74488;DHT22;63019;51.080;13.642;2023-12-20T02:25:42;5.10;99.90
74488;DHT22;63019;51.080;13.642;2023-12-20T02:26:44;5.10;99.90
74488;DHT22;63019;51.080;13.642;2023-12-20T02:27:48;5.10;99.90
74488;DHT22;63019;51.080;13.642;2023-12-20T02:28:50;5.10;99.90
74488;DHT22;63019;51.080;13.642;2023-12-20T02:29:52;5.10;99.90
74488;DHT22;63019;51.080;13.642;2023-12-20T02:30:54;5.10;99.90
74488;DHT22;63019;51.080;13.642;2023-12-20T02:31:56;5.10;99.90
74488;DHT22;63019;51.080;13.642;2023-12-20T02:32:59;5.10;99.90
74488;DHT22;63019;51.080;13.642;2023-12-20T02:34:02;5.10;99.90
74488;DHT22;63019;51.080;13.642;2023-12-20T02:35:04;5.10;99.90
74488;DHT22;63019;51.080;13.642;2023-12-20T02:36:06;5.10;99.90
74488;DHT22;63019;51.080;13.642;2023-12-20T02:37:08;5.10;99.90
74488;DHT22;63019;51.080;13.642;2023-12-20T02:38:10;5.10;99.90
74488;DHT22;63019;51.080;13.642;2023-12-20T02:39:12;5.10;99.90
74488;DHT22;63019;51.080;13.642;2023-12-20T02:40:14;5.10;99.90
74488;DHT22;63019;51.080;13.642;2023-12-20T02:41:16;5.10;99.90
74488;DHT22;63019;51.080;13.642;2023-12-20T02:42:19;5.10;99.90
74488;DHT22;63019;51.080;13.642;2023-12-20T02:43:21;5.10;99.90
74488;DHT22;63019;51.080;13.642;2023-12-20T02:44:23;5.10;99.90
74488;DHT22;63019;51.080;13.642;2023-12-20T02:45:26;5.10;99.90
74488;DHT22;63019;51.080;13.642;2023-12-20T02:46:28;5.00;99.90
74488;DHT22;63019;51.080;13.642;2023-12-20T02:47:30;5.10;99.90
74488;DHT22;63019;51.080;13.642;2023-12-20T02:48:32;5.10;99.90
74488;DHT22;63019;51.080;13.642;2023-12-20T02:49:34;5.00;99.90
74488;DHT22;63019;51.080;13.642;2023-12-20T02:50:36;5.10;99.90
74488;DHT22;63019;51.080;13.642;2023-12-20T02:51:38;5.10;99.90
74488;DHT22;63019;51.080;13.642;2023-12-20T02:52:40;5.10;99.90
74488;DHT22;63019;51.080;13.642;2023-12-20T02:53:42;5.00;99.90
74488;DHT22;63019;51.080;13.642;2023-12-20T02:54:44;5.00;99.90
74488;DHT22;63019;51.080;13.642;2023-12-20T02:55:45;5.00;99.90
74488;DHT22;63019;51.080;13.642;2023-12-20T03:01:03;5.10;99.90
74488;DHT22;63019;51.080;13.642;2023-12-20T03:02:05;5.10;99.90
74488;DHT22;63019;51.080;13.642;2023-12-20T03:03:07;5.10;99.90
74488;DHT22;63019;51.080;13.642;2023-12-20T03:04:09;5.10;99.90
74488;DHT22;63019;51.080;13.642;2023-12-20T03:05:11;5.10;99.90
74488;DHT22;63019;51.080;13.642;2023-12-20T03:06:18;5.10;99.90
74488;DHT22;63019;51.080;13.642;2023-12-20T03:07:20;5.10;99.90
74488;DHT22;63019;51.080;13.642;2023-12-20T03:08:23;5.00;99.90
74488;DHT22;63019;51.080;13.642;2023-12-20T03:09:24;5.00;99.90
74488;DHT22;63019;51.080;13.642;2023-12-20T03:10:26;5.00;99.90
74488;DHT22;63019;51.080;13.642;2023-12-20T03:11:28;5.00;99.90
74488;DHT22;63019;51.080;13.642;2023-12-20T03:12:30;5.00;99.90
74488;DHT22;63019;51.080;13.642;2023-12-20T03:13:32;5.00;99.90
74488;DHT22;63019;51.080;13.642;2023-12-20T03:14:34;5.00;99.90
74488;DHT22;63019;51.080;13.642;2023-12-20T03:15:35;5.00;99.90
74488;DHT22;63019;51.080;13.642;2023-12-20T03:16:37;5.00;99.90
74488;DHT22;63019;51.080;13.642;2023-12-20T03:17:39;5.00;99.90
74488;DHT22;63019;51.080;13.642;2023-12-20T03:18:41;4.90;99.90
74488;DHT22;63019;51.080;13.642;2023-12-20T03:19:43;5.00;99.90
74488;DHT22;63019;51.080;13.642;2023-12-20T03:20:45;5.00;99.90
74488;DHT22;63019;51.080;13.642;2023-12-20T03:21:49;5.00;99.90
74488;DHT22;63019;51.080;13.642;2023-12-20T03:22:50;5.00;99.90
74488;DHT22;63019;51.080;13.642;2023-12-20T03:23:52;5.00;99.90
74488;DHT22;63019;51.080;13.642;2023-12-20T03:24:54;5.00;99.90
74488;DHT22;63019;51.080;13.642;2023-12-20T03:25:56;5.00;99.90
74488;DHT22;63019;51.080;13.642;2023-12-20T03:26:58;5.00;99.90
74488;DHT22;63019;51.080;13.642;2023-12-20T03:28:00;5.00;99.90
74488;DHT22;63019;51.080;13.642;2023-12-20T03:29:02;5.00;99.90
74488;DHT22;63019;51.080;13.642;2023-12-20T03:30:04;5.00;99.90
74488;DHT22;63019;51.080;13.642;2023-12-20T03:31:06;4.90;99.90
74488;DHT22;63019;51.080;13.642;2023-12-20T03:32:08;5.00;99.90
74488;DHT22;63019;51.080;13.642;2023-12-20T03:33:10;5.00;99.90
74488;DHT22;63019;51.080;13.642;2023-12-20T03:34:12;4.90;99.90
74488;DHT22;63019;51.080;13.642;2023-12-20T03:35:14;5.00;99.90
74488;DHT22;63019;51.080;13.642;2023-12-20T03:36:16;4.90;99.90
74488;DHT22;63019;51.080;13.642;2023-12-20T03:37:18;5.00;99.90
74488;DHT22;63019;51.080;13.642;2023-12-20T03:38:21;5.00;99.90
74488;DHT22;63019;51.080;13.642;2023-12-20T03:39:22;5.00;99.90
74488;DHT22;63019;51.080;13.642;2023-12-20T03:40:24;5.00;99.90
74488;DHT22;63019;51.080;13.642;2023-12-20T03:41:26;5.00;99.90
74488;DHT22;63019;51.080;13.642;2023-12-20T03:42:28;5.00;99.90
74488;DHT22;63019;51.080;13.642;2023-12-20T03:43:30;5.00;99.90
74488;DHT22;63019;51.080;13.642;2023-12-20T03:44:32;5.00;99.90
74488;DHT22;63019;51.080;13.642;2023-12-20T03:45:33;5.00;99.90
74488;DHT22;63019;51.080;13.642;2023-12-20T03:46:35;5.00;99.90
74488;DHT22;63019;51.080;13.642;2023-12-20T03:47:38;5.00;99.90
74488;DHT22;63019;51.080;13.642;2023-12-20T03:48:40;5.00;99.90
74488;DHT22;63019;51.080;13.642;2023-12-20T03:49:41;5.00;99.90
74488;DHT22;63019;51.080;13.642;2023-12-20T03:50:43;5.00;99.90
74488;DHT22;63019;51.080;13.642;2023-12-20T03:51:45;5.00;99.90
74488;DHT22;63019;51.080;13.642;2023-12-20T03:52:47;5.00;99.90
74488;DHT22;63019;51.080;13.642;2023-12-20T03:53:49;5.00;99.90
74488;DHT22;63019;51.080;13.642;2023-12-20T03:54:50;5.00;99.90
74488;DHT22;63019;51.080;13.642;2023-12-20T03:55:52;5.00;99.90
74488;DHT22;63019;51.080;13.642;2023-12-20T03:56:54;5.00;99.90
74488;DHT22;63019;51.080;13.642;2023-12-20T03:57:56;5.00;99.90
74488;DHT22;63019;51.080;13.642;2023-12-20T03:58:58;5.00;99.90
74488;DHT22;63019;51.080;13.642;2023-12-20T03:59:59;5.00;99.90
74488;DHT22;63019;51.080;13.642;2023-12-20T04:01:01;5.00;99.90
74488;DHT22;63019;51.080;13.642;2023-12-20T04:02:04;5.00;99.90
74488;DHT22;63019;51.080;13.642;2023-12-20T04:03:07;5.00;99.90
74488;DHT22;63019;51.080;13.642;2023-12-20T04:04:09;5.00;99.90
74488;DHT22;63019;51.080;13.642;2023-12-20T04:05:11;4.90;99.90
74488;DHT22;63019;51.080;13.642;2023-12-20T04:06:22;5.00;99.90
74488;DHT22;63019;51.080;13.642;2023-12-20T04:07:23;4.90;99.90
74488;DHT22;63019;51.080;13.642;2023-12-20T04:08:25;5.00;99.90
74488;DHT22;63019;51.080;13.642;2023-12-20T04:09:27;5.00;99.90
74488;DHT22;63019;51.080;13.642;2023-12-20T04:10:29;5.00;99.90
74488;DHT22;63019;51.080;13.642;2023-12-20T04:11:31;5.00;99.90
74488;DHT22;63019;51.080;13.642;2023-12-20T04:12:32;5.00;99.90
74488;DHT22;63019;51.080;13.642;2023-12-20T04:13:35;5.00;99.90
74488;DHT22;63019;51.080;13.642;2023-12-20T04:14:36;5.00;99.90
74488;DHT22;63019;51.080;13.642;2023-12-20T04:15:39;5.00;99.90
74488;DHT22;63019;51.080;13.642;2023-12-20T04:16:41;5.00;99.90
74488;DHT22;63019;51.080;13.642;2023-12-20T04:17:48;5.00;99.90
74488;DHT22;63019;51.080;13.642;2023-12-20T04:18:50;5.00;99.90
74488;DHT22;63019;51.080;13.642;2023-12-20T04:19:52;5.00;99.90
74488;DHT22;63019;51.080;13.642;2023-12-20T04:20:54;5.00;99.90
74488;DHT22;63019;51.080;13.642;2023-12-20T04:21:56;5.00;99.90
74488;DHT22;63019;51.080;13.642;2023-12-20T04:22:58;5.00;99.90
74488;DHT22;63019;51.080;13.642;2023-12-20T04:24:00;5.00;99.90
74488;DHT22;63019;51.080;13.642;2023-12-20T04:25:02;5.00;99.90
74488;DHT22;63019;51.080;13.642;2023-12-20T04:26:04;5.00;99.90
74488;DHT22;63019;51.080;13.642;2023-12-20T04:27:05;5.00;99.90
74488;DHT22;63019;51.080;13.642;2023-12-20T04:28:08;5.00;99.90
74488;DHT22;63019;51.080;13.642;2023-12-20T04:29:10;5.00;99.90
74488;DHT22;63019;51.080;13.642;2023-12-20T04:30:12;5.00;99.90
74488;DHT22;63019;51.080;13.642;2023-12-20T04:31:13;5.00;99.90
74488;DHT22;63019;51.080;13.642;2023-12-20T04:32:15;5.00;99.90
74488;DHT22;63019;51.080;13.642;2023-12-20T04:33:17;5.00;99.90
74488;DHT22;63019;51.080;13.642;2023-12-20T04:34:20;5.00;99.90
74488;DHT22;63019;51.080;13.642;2023-12-20T04:35:22;5.00;99.90
74488;DHT22;63019;51.080;13.642;2023-12-20T04:36:24;5.00;99.90
74488;DHT22;63019;51.080;13.642;2023-12-20T04:37:28;5.00;99.90
74488;DHT22;63019;51.080;13.642;2023-12-20T04:38:30;5.00;99.90
74488;DHT22;63019;51.080;13.642;2023-12-20T04:39:32;5.00;99.90
74488;DHT22;63019;51.080;13.642;2023-12-20T04:40:34;5.10;99.90
74488;DHT22;63019;51.080;13.642;2023-12-20T04:41:36;5.10;99.90
74488;DHT22;63019;51.080;13.642;2023-12-20T04:42:38;5.00;99.90
74488;DHT22;63019;51.080;13.642;2023-12-20T04:43:40;5.10;99.90
74488;DHT22;63019;51.080;13.642;2023-12-20T04:44:42;5.00;99.90
74488;DHT22;63019;51.080;13.642;2023-12-20T04:45:45;5.00;99.90
74488;DHT22;63019;51.080;13.642;2023-12-20T04:46:47;5.00;99.90
74488;DHT22;63019;51.080;13.642;2023-12-20T04:47:49;5.00;99.90
74488;DHT22;63019;51.080;13.642;2023-12-20T04:48:50;5.00;99.90
74488;DHT22;63019;51.080;13.642;2023-12-20T04:49:52;5.00;99.90
74488;DHT22;63019;51.080;13.642;2023-12-20T04:50:54;5.00;99.90
74488;DHT22;63019;51.080;13.642;2023-12-20T04:51:56;5.00;99.90
74488;DHT22;63019;51.080;13.642;2023-12-20T04:52:58;5.10;99.90
74488;DHT22;63019;51.080;13.642;2023-12-20T04:54:00;5.10;99.90
74488;DHT22;63019;51.080;13.642;2023-12-20T04:55:02;5.10;99.90
74488;DHT22;63019;51.080;13.642;2023-12-20T04:56:04;5.10;99.90
74488;DHT22;63019;51.080;13.642;2023-12-20T04:57:06;5.10;99.90
74488;DHT22;63019;51.080;13.642;2023-12-20T04:58:08;5.10;99.90
74488;DHT22;63019;51.080;13.642;2023-12-20T04:59:10;5.10;99.90
74488;DHT22;63019;51.080;13.642;2023-12-20T05:00:12;5.10;99.90
74488;DHT22;63019;51.080;13.642;2023-12-20T05:01:15;5.10;99.90
74488;DHT22;63019;51.080;13.642;2023-12-20T05:02:17;5.10;99.90
74488;DHT22;63019;51.080;13.642;2023-12-20T05:03:19;5.10;99.90
74488;DHT22;63019;51.080;13.642;2023-12-20T05:04:21;5.10;99.90
74488;DHT22;63019;51.080;13.642;2023-12-20T05:05:23;5.00;99.90
74488;DHT22;63019;51.080;13.642;2023-12-20T05:06:25;5.00;99.90
74488;DHT22;63019;51.080;13.642;2023-12-20T05:07:27;5.00;99.90
74488;DHT22;63019;51.080;13.642;2023-12-20T05:08:29;5.00;99.90
74488;DHT22;63019;51.080;13.642;2023-12-20T05:09:30;5.00;99.90
74488;DHT22;63019;51.080;13.642;2023-12-20T05:10:33;5.00;99.90
74488;DHT22;63019;51.080;13.642;2023-12-20T05:11:34;5.10;99.90
74488;DHT22;63019;51.080;13.642;2023-12-20T05:12:37;5.10;99.90
74488;DHT22;63019;51.080;13.642;2023-12-20T05:13:39;5.10;99.90
74488;DHT22;63019;51.080;13.642;2023-12-20T05:14:51;5.10;99.90
74488;DHT22;63019;51.080;13.642;2023-12-20T05:15:53;5.10;99.90
74488;DHT22;63019;51.080;13.642;2023-12-20T05:16:55;5.10;99.90
74488;DHT22;63019;51.080;13.642;2023-12-20T05:17:58;5.10;99.90
74488;DHT22;63019;51.080;13.642;2023-12-20T05:19:00;5.10;99.90
74488;DHT22;63019;51.080;13.642;2023-12-20T05:20:08;5.10;99.90
74488;DHT22;63019;51.080;13.642;2023-12-20T05:21:10;5.10;99.90
74488;DHT22;63019;51.080;13.642;2023-12-20T05:22:12;5.10;99.90
74488;DHT22;63019;51.080;13.642;2023-12-20T05:23:14;5.10;99.90
74488;DHT22;63019;51.080;13.642;2023-12-20T05:24:15;5.10;99.90
74488;DHT22;63019;51.080;13.642;2023-12-20T05:25:17;5.10;99.90
74488;DHT22;63019;51.080;13.642;2023-12-20T05:26:19;5.00;99.90
74488;DHT22;63019;51.080;13.642;2023-12-20T05:27:21;5.10;99.90
74488;DHT22;63019;51.080;13.642;2023-12-20T05:28:23;5.10;99.90
74488;DHT22;63019;51.080;13.642;2023-12-20T05:29:25;5.10;99.90
74488;DHT22;63019;51.080;13.642;2023-12-20T05:30:27;5.10;99.90
74488;DHT22;63019;51.080;13.642;2023-12-20T05:31:29;5.10;99.90
74488;DHT22;63019;51.080;13.642;2023-12-20T05:32:31;5.10;99.90
74488;DHT22;63019;51.080;13.642;2023-12-20T05:33:32;5.10;99.90
74488;DHT22;63019;51.080;13.642;2023-12-20T05:34:35;5.10;99.90
74488;DHT22;63019;51.080;13.642;2023-12-20T05:35:37;5.10;99.90
74488;DHT22;63019;51.080;13.642;2023-12-20T05:36:39;5.10;99.90
74488;DHT22;63019;51.080;13.642;2023-12-20T05:37:41;5.10;99.90
74488;DHT22;63019;51.080;13.642;2023-12-20T05:38:43;5.10;99.90
74488;DHT22;63019;51.080;13.642;2023-12-20T05:39:45;5.10;99.90
74488;DHT22;63019;51.080;13.642;2023-12-20T05:40:47;5.10;99.90
74488;DHT22;63019;51.080;13.642;2023-12-20T05:41:49;5.10;99.90
74488;DHT22;63019;51.080;13.642;2023-12-20T05:42:50;5.10;99.90
74488;DHT22;63019;51.080;13.642;2023-12-20T05:43:52;5.10;99.90
74488;DHT22;63019;51.080;13.642;2023-12-20T05:44:54;5.10;99.90
74488;DHT22;63019;51.080;13.642;2023-12-20T05:45:59;5.10;99.90
74488;DHT22;63019;51.080;13.642;2023-12-20T05:47:01;5.10;99.90
74488;DHT22;63019;51.080;13.642;2023-12-20T05:48:03;5.10;99.90
74488;DHT22;63019;51.080;13.642;2023-12-20T05:49:06;5.10;99.90
74488;DHT22;63019;51.080;13.642;2023-12-20T05:50:08;5.10;99.90
74488;DHT22;63019;51.080;13.642;2023-12-20T05:51:13;5.10;99.90
74488;DHT22;63019;51.080;13.642;2023-12-20T05:52:15;5.10;99.90
74488;DHT22;63019;51.080;13.642;2023-12-20T05:53:17;5.10;99.90
74488;DHT22;63019;51.080;13.642;2023-12-20T05:54:19;5.10;99.90
74488;DHT22;63019;51.080;13.642;2023-12-20T05:55:21;5.10;99.90
74488;DHT22;63019;51.080;13.642;2023-12-20T05:56:23;5.10;99.90
74488;DHT22;63019;51.080;13.642;2023-12-20T05:57:25;5.10;99.90
74488;DHT22;63019;51.080;13.642;2023-12-20T05:58:27;5.10;99.90
74488;DHT22;63019;51.080;13.642;2023-12-20T05:59:29;5.20;99.90
74488;DHT22;63019;51.080;13.642;2023-12-20T06:00:30;5.20;99.90
74488;DHT22;63019;51.080;13.642;2023-12-20T06:01:32;5.20;99.90
74488;DHT22;63019;51.080;13.642;2023-12-20T06:02:34;5.20;99.90
74488;DHT22;63019;51.080;13.642;2023-12-20T06:03:41;5.20;99.90
74488;DHT22;63019;51.080;13.642;2023-12-20T06:04:43;5.20;99.90
74488;DHT22;63019;51.080;13.642;2023-12-20T06:05:45;5.10;99.90
74488;DHT22;63019;51.080;13.642;2023-12-20T06:06:47;5.20;99.90
74488;DHT22;63019;51.080;13.642;2023-12-20T06:07:49;5.10;99.90
74488;DHT22;63019;51.080;13.642;2023-12-20T06:08:52;5.20;99.90
74488;DHT22;63019;51.080;13.642;2023-12-20T06:09:54;5.20;99.90
74488;DHT22;63019;51.080;13.642;2023-12-20T06:10:56;5.20;99.90
74488;DHT22;63019;51.080;13.642;2023-12-20T06:11:58;5.20;99.90
74488;DHT22;63019;51.080;13.642;2023-12-20T06:13:00;5.20;99.90
74488;DHT22;63019;51.080;13.642;2023-12-20T06:14:02;5.20;99.90
74488;DHT22;63019;51.080;13.642;2023-12-20T06:15:04;5.20;99.90
74488;DHT22;63019;51.080;13.642;2023-12-20T06:16:07;5.20;99.90
74488;DHT22;63019;51.080;13.642;2023-12-20T06:17:09;5.20;99.90
74488;DHT22;63019;51.080;13.642;2023-12-20T06:18:11;5.20;99.90
74488;DHT22;63019;51.080;13.642;2023-12-20T06:19:13;5.20;99.90
74488;DHT22;63019;51.080;13.642;2023-12-20T06:20:15;5.20;99.90
74488;DHT22;63019;51.080;13.642;2023-12-20T06:21:18;5.30;99.90
74488;DHT22;63019;51.080;13.642;2023-12-20T06:22:20;5.20;99.90
74488;DHT22;63019;51.080;13.642;2023-12-20T06:23:22;5.30;99.90
74488;DHT22;63019;51.080;13.642;2023-12-20T06:24:23;5.20;99.90
74488;DHT22;63019;51.080;13.642;2023-12-20T06:25:29;5.30;99.90
74488;DHT22;63019;51.080;13.642;2023-12-20T06:26:31;5.30;99.90
74488;DHT22;63019;51.080;13.642;2023-12-20T06:27:33;5.30;99.90
74488;DHT22;63019;51.080;13.642;2023-12-20T06:28:34;5.30;99.90
74488;DHT22;63019;51.080;13.642;2023-12-20T06:29:39;5.30;99.90
74488;DHT22;63019;51.080;13.642;2023-12-20T06:30:42;5.30;99.90
74488;DHT22;63019;51.080;13.642;2023-12-20T06:31:44;5.30;99.90
74488;DHT22;63019;51.080;13.642;2023-12-20T06:32:46;5.30;99.90
74488;DHT22;63019;51.080;13.642;2023-12-20T06:33:49;5.30;99.90
74488;DHT22;63019;51.080;13.642;2023-12-20T06:34:59;5.30;99.90
74488;DHT22;63019;51.080;13.642;2023-12-20T06:36:01;5.30;99.90
74488;DHT22;63019;51.080;13.642;2023-12-20T06:37:03;5.30;99.90